sensor_id;sensor_type;location;lat;lon;timestamp;pressure;altitude;pressure_sealevel;temperature
20092;BMP180;10205;49.678;6.560;2022-12-16T00:02:07;99115.00;;;0.40
20092;BMP180;10205;49.678;6.560;2022-12-16T00:04:35;99112.00;;;0.50
20092;BMP180;10205;49.678;6.560;2022-12-16T00:07:02;99113.00;;;0.50
20092;BMP180;10205;49.678;6.560;2022-12-16T00:09:30;99111.00;;;0.50
20092;BMP180;10205;49.678;6.560;2022-12-16T00:11:57;99111.00;;;0.50
20092;BMP180;10205;49.678;6.560;2022-12-16T00:14:24;99119.00;;;0.60
20092;BMP180;10205;49.678;6.560;2022-12-16T00:16:53;99121.00;;;0.60
20092;BMP180;10205;49.678;6.560;2022-12-16T00:19:20;99122.00;;;0.60
20092;BMP180;10205;49.678;6.560;2022-12-16T00:21:49;99123.00;;;0.60
20092;BMP180;10205;49.678;6.560;2022-12-16T00:24:17;99126.00;;;0.60
20092;BMP180;10205;49.678;6.560;2022-12-16T00:26:44;99128.00;;;0.60
20092;BMP180;10205;49.678;6.560;2022-12-16T00:29:11;99120.00;;;0.60
20092;BMP180;10205;49.678;6.560;2022-12-16T00:31:38;99142.00;;;0.60
20092;BMP180;10205;49.678;6.560;2022-12-16T00:34:05;99126.00;;;0.60
20092;BMP180;10205;49.678;6.560;2022-12-16T00:36:32;99130.00;;;0.60
20092;BMP180;10205;49.678;6.560;2022-12-16T00:39:01;99128.00;;;0.60
20092;BMP180;10205;49.678;6.560;2022-12-16T00:41:28;99125.00;;;0.50
20092;BMP180;10205;49.678;6.560;2022-12-16T00:43:55;99133.00;;;0.50
20092;BMP180;10205;49.678;6.560;2022-12-16T00:46:22;99118.00;;;0.50
20092;BMP180;10205;49.678;6.560;2022-12-16T00:48:49;99131.00;;;0.50
20092;BMP180;10205;49.678;6.560;2022-12-16T00:51:16;99128.00;;;0.40
20092;BMP180;10205;49.678;6.560;2022-12-16T00:53:43;99138.00;;;0.40
20092;BMP180;10205;49.678;6.560;2022-12-16T00:56:13;99126.00;;;0.40
20092;BMP180;10205;49.678;6.560;2022-12-16T00:58:40;99138.00;;;0.40
20092;BMP180;10205;49.678;6.560;2022-12-16T01:01:08;99141.00;;;0.30
20092;BMP180;10205;49.678;6.560;2022-12-16T01:03:36;99148.00;;;0.30
20092;BMP180;10205;49.678;6.560;2022-12-16T01:06:08;99148.00;;;0.20
20092;BMP180;10205;49.678;6.560;2022-12-16T01:08:36;99149.00;;;0.20
20092;BMP180;10205;49.678;6.560;2022-12-16T01:11:03;99144.00;;;0.20
20092;BMP180;10205;49.678;6.560;2022-12-16T01:13:32;99159.00;;;0.20
20092;BMP180;10205;49.678;6.560;2022-12-16T01:16:00;99154.00;;;0.20
20092;BMP180;10205;49.678;6.560;2022-12-16T01:18:27;99161.00;;;0.30
20092;BMP180;10205;49.678;6.560;2022-12-16T01:21:01;99152.00;;;0.20
20092;BMP180;10205;49.678;6.560;2022-12-16T01:23:28;99163.00;;;0.20
20092;BMP180;10205;49.678;6.560;2022-12-16T01:25:59;99167.00;;;0.20
20092;BMP180;10205;49.678;6.560;2022-12-16T01:28:27;99175.00;;;0.20
20092;BMP180;10205;49.678;6.560;2022-12-16T01:30:57;99180.00;;;0.20
20092;BMP180;10205;49.678;6.560;2022-12-16T01:33:27;99183.00;;;0.10
20092;BMP180;10205;49.678;6.560;2022-12-16T01:36:02;99183.00;;;0.20
20092;BMP180;10205;49.678;6.560;2022-12-16T01:38:30;99185.00;;;0.20
20092;BMP180;10205;49.678;6.560;2022-12-16T01:40:58;99185.00;;;0.10
20092;BMP180;10205;49.678;6.560;2022-12-16T01:43:28;99188.00;;;0.10
20092;BMP180;10205;49.678;6.560;2022-12-16T01:46:02;99187.00;;;0.10
20092;BMP180;10205;49.678;6.560;2022-12-16T01:48:38;99189.00;;;0.10
20092;BMP180;10205;49.678;6.560;2022-12-16T01:51:10;99196.00;;;0.20
20092;BMP180;10205;49.678;6.560;2022-12-16T01:53:41;99194.00;;;0.20
20092;BMP180;10205;49.678;6.560;2022-12-16T01:56:12;99193.00;;;0.20
20092;BMP180;10205;49.678;6.560;2022-12-16T01:58:43;99198.00;;;0.20
20092;BMP180;10205;49.678;6.560;2022-12-16T02:01:15;99197.00;;;0.20
20092;BMP180;10205;49.678;6.560;2022-12-16T02:03:44;99199.00;;;0.20
20092;BMP180;10205;49.678;6.560;2022-12-16T02:06:12;99203.00;;;0.20
20092;BMP180;10205;49.678;6.560;2022-12-16T02:08:39;99200.00;;;0.20
20092;BMP180;10205;49.678;6.560;2022-12-16T02:11:30;99218.00;;;0.20
20092;BMP180;10205;49.678;6.560;2022-12-16T02:14:24;99198.00;;;0.20
20092;BMP180;10205;49.678;6.560;2022-12-16T02:17:11;99207.00;;;0.20
20092;BMP180;10205;49.678;6.560;2022-12-16T02:20:20;99201.00;;;0.10
20092;BMP180;10205;49.678;6.560;2022-12-16T02:23:18;99194.00;;;0.10
20092;BMP180;10205;49.678;6.560;2022-12-16T02:29:32;99210.00;;;-0.10
20092;BMP180;10205;49.678;6.560;2022-12-16T02:32:20;99199.00;;;-0.20
20092;BMP180;10205;49.678;6.560;2022-12-16T02:34:58;99203.00;;;-0.30
20092;BMP180;10205;49.678;6.560;2022-12-16T02:37:37;99203.00;;;-0.40
20092;BMP180;10205;49.678;6.560;2022-12-16T02:40:17;99195.00;;;-0.40
20092;BMP180;10205;49.678;6.560;2022-12-16T02:42:53;99209.00;;;-0.50
20092;BMP180;10205;49.678;6.560;2022-12-16T02:45:28;99203.00;;;-0.50
20092;BMP180;10205;49.678;6.560;2022-12-16T02:47:58;99200.00;;;-0.50
20092;BMP180;10205;49.678;6.560;2022-12-16T02:50:32;99209.00;;;-0.50
20092;BMP180;10205;49.678;6.560;2022-12-16T02:53:01;99209.00;;;-0.60
20092;BMP180;10205;49.678;6.560;2022-12-16T02:55:43;99216.00;;;-0.60
20092;BMP180;10205;49.678;6.560;2022-12-16T02:58:18;99225.00;;;-0.60
20092;BMP180;10205;49.678;6.560;2022-12-16T03:00:59;99218.00;;;-0.60
20092;BMP180;10205;49.678;6.560;2022-12-16T03:03:41;99221.00;;;-0.60
20092;BMP180;10205;49.678;6.560;2022-12-16T03:06:13;99228.00;;;-0.60
20092;BMP180;10205;49.678;6.560;2022-12-16T03:08:48;99226.00;;;-0.60
20092;BMP180;10205;49.678;6.560;2022-12-16T03:11:17;99228.00;;;-0.60
20092;BMP180;10205;49.678;6.560;2022-12-16T03:13:50;99225.00;;;-0.70
20092;BMP180;10205;49.678;6.560;2022-12-16T03:16:23;99225.00;;;-0.70
20092;BMP180;10205;49.678;6.560;2022-12-16T03:18:58;99232.00;;;-0.80
20092;BMP180;10205;49.678;6.560;2022-12-16T03:21:32;99244.00;;;-0.80
20092;BMP180;10205;49.678;6.560;2022-12-16T03:24:05;99222.00;;;-0.80
20092;BMP180;10205;49.678;6.560;2022-12-16T03:26:39;99224.00;;;-0.90
20092;BMP180;10205;49.678;6.560;2022-12-16T03:29:15;99231.00;;;-0.90
20092;BMP180;10205;49.678;6.560;2022-12-16T03:31:51;99233.00;;;-1.00
20092;BMP180;10205;49.678;6.560;2022-12-16T03:34:31;99230.00;;;-1.10
20092;BMP180;10205;49.678;6.560;2022-12-16T03:37:02;99237.00;;;-1.10
20092;BMP180;10205;49.678;6.560;2022-12-16T03:39:34;99237.00;;;-1.10
20092;BMP180;10205;49.678;6.560;2022-12-16T03:42:03;99241.00;;;-1.20
20092;BMP180;10205;49.678;6.560;2022-12-16T03:44:33;99244.00;;;-1.20
20092;BMP180;10205;49.678;6.560;2022-12-16T03:47:01;99234.00;;;-1.20
20092;BMP180;10205;49.678;6.560;2022-12-16T03:49:29;99247.00;;;-1.30
20092;BMP180;10205;49.678;6.560;2022-12-16T03:51:56;99238.00;;;-1.30
20092;BMP180;10205;49.678;6.560;2022-12-16T03:54:24;99245.00;;;-1.20
20092;BMP180;10205;49.678;6.560;2022-12-16T03:56:51;99261.00;;;-1.20
20092;BMP180;10205;49.678;6.560;2022-12-16T03:59:19;99246.00;;;-1.20
20092;BMP180;10205;49.678;6.560;2022-12-16T04:01:47;99262.00;;;-1.20
20092;BMP180;10205;49.678;6.560;2022-12-16T04:04:14;99258.00;;;-1.20
20092;BMP180;10205;49.678;6.560;2022-12-16T04:06:43;99255.00;;;-1.20
20092;BMP180;10205;49.678;6.560;2022-12-16T04:09:10;99247.00;;;-1.20
20092;BMP180;10205;49.678;6.560;2022-12-16T04:11:38;99263.00;;;-1.20
20092;BMP180;10205;49.678;6.560;2022-12-16T04:14:22;99261.00;;;-1.20
20092;BMP180;10205;49.678;6.560;2022-12-16T04:17:10;99251.00;;;-1.20
20092;BMP180;10205;49.678;6.560;2022-12-16T04:19:56;99257.00;;;-1.20
20092;BMP180;10205;49.678;6.560;2022-12-16T04:22:43;99272.00;;;-1.30
20092;BMP180;10205;49.678;6.560;2022-12-16T04:25:31;99270.00;;;-1.30
20092;BMP180;10205;49.678;6.560;2022-12-16T04:28:00;99280.00;;;-1.30
20092;BMP180;10205;49.678;6.560;2022-12-16T04:30:30;99260.00;;;-1.40
20092;BMP180;10205;49.678;6.560;2022-12-16T04:33:02;99266.00;;;-1.40
20092;BMP180;10205;49.678;6.560;2022-12-16T04:35:48;99273.00;;;-1.50
20092;BMP180;10205;49.678;6.560;2022-12-16T04:38:34;99279.00;;;-1.50
20092;BMP180;10205;49.678;6.560;2022-12-16T04:41:19;99282.00;;;-1.60
20092;BMP180;10205;49.678;6.560;2022-12-16T04:44:04;99286.00;;;-1.60
20092;BMP180;10205;49.678;6.560;2022-12-16T04:46:49;99290.00;;;-1.60
20092;BMP180;10205;49.678;6.560;2022-12-16T04:49:33;99296.00;;;-1.60
20092;BMP180;10205;49.678;6.560;2022-12-16T04:52:19;99292.00;;;-1.70
20092;BMP180;10205;49.678;6.560;2022-12-16T04:55:07;99299.00;;;-1.70
20092;BMP180;10205;49.678;6.560;2022-12-16T04:57:54;99325.00;;;-1.70
20092;BMP180;10205;49.678;6.560;2022-12-16T05:00:39;99331.00;;;-1.70
20092;BMP180;10205;49.678;6.560;2022-12-16T05:03:25;99321.00;;;-1.80
20092;BMP180;10205;49.678;6.560;2022-12-16T05:06:24;99328.00;;;-1.90
20092;BMP180;10205;49.678;6.560;2022-12-16T05:09:09;99329.00;;;-1.90
20092;BMP180;10205;49.678;6.560;2022-12-16T05:11:55;99331.00;;;-2.00
20092;BMP180;10205;49.678;6.560;2022-12-16T05:14:39;99334.00;;;-2.00
20092;BMP180;10205;49.678;6.560;2022-12-16T05:17:24;99337.00;;;-2.00
20092;BMP180;10205;49.678;6.560;2022-12-16T05:20:09;99341.00;;;-2.00
20092;BMP180;10205;49.678;6.560;2022-12-16T05:22:55;99354.00;;;-2.10
20092;BMP180;10205;49.678;6.560;2022-12-16T05:25:40;99346.00;;;-2.20
20092;BMP180;10205;49.678;6.560;2022-12-16T05:28:26;99350.00;;;-2.20
20092;BMP180;10205;49.678;6.560;2022-12-16T05:31:11;99347.00;;;-2.20
20092;BMP180;10205;49.678;6.560;2022-12-16T05:33:55;99357.00;;;-2.20
20092;BMP180;10205;49.678;6.560;2022-12-16T05:36:40;99374.00;;;-2.30
20092;BMP180;10205;49.678;6.560;2022-12-16T05:39:25;99363.00;;;-2.30
20092;BMP180;10205;49.678;6.560;2022-12-16T05:42:09;99377.00;;;-2.30
20092;BMP180;10205;49.678;6.560;2022-12-16T05:44:55;99381.00;;;-2.30
20092;BMP180;10205;49.678;6.560;2022-12-16T05:47:40;99392.00;;;-2.20
20092;BMP180;10205;49.678;6.560;2022-12-16T05:50:25;99378.00;;;-2.20
20092;BMP180;10205;49.678;6.560;2022-12-16T05:53:09;99381.00;;;-2.20
20092;BMP180;10205;49.678;6.560;2022-12-16T05:55:53;99391.00;;;-2.20
20092;BMP180;10205;49.678;6.560;2022-12-16T05:58:38;99396.00;;;-2.20
20092;BMP180;10205;49.678;6.560;2022-12-16T06:01:24;99395.00;;;-2.20
20092;BMP180;10205;49.678;6.560;2022-12-16T06:04:09;99397.00;;;-2.10
20092;BMP180;10205;49.678;6.560;2022-12-16T06:06:53;99407.00;;;-2.10
20092;BMP180;10205;49.678;6.560;2022-12-16T06:09:38;99411.00;;;-2.10
20092;BMP180;10205;49.678;6.560;2022-12-16T06:12:23;99413.00;;;-2.10
20092;BMP180;10205;49.678;6.560;2022-12-16T06:15:09;99405.00;;;-2.10
20092;BMP180;10205;49.678;6.560;2022-12-16T06:17:55;99415.00;;;-2.10
20092;BMP180;10205;49.678;6.560;2022-12-16T06:20:40;99406.00;;;-2.20
20092;BMP180;10205;49.678;6.560;2022-12-16T06:23:24;99417.00;;;-2.20
20092;BMP180;10205;49.678;6.560;2022-12-16T06:26:09;99429.00;;;-2.20
20092;BMP180;10205;49.678;6.560;2022-12-16T06:28:53;99439.00;;;-2.20
20092;BMP180;10205;49.678;6.560;2022-12-16T06:31:38;99441.00;;;-2.20
20092;BMP180;10205;49.678;6.560;2022-12-16T06:34:24;99450.00;;;-2.20
20092;BMP180;10205;49.678;6.560;2022-12-16T06:37:09;99453.00;;;-2.10
20092;BMP180;10205;49.678;6.560;2022-12-16T06:39:53;99450.00;;;-2.10
20092;BMP180;10205;49.678;6.560;2022-12-16T06:42:39;99456.00;;;-2.10
20092;BMP180;10205;49.678;6.560;2022-12-16T06:45:23;99468.00;;;-2.10
20092;BMP180;10205;49.678;6.560;2022-12-16T06:48:08;99460.00;;;-2.00
20092;BMP180;10205;49.678;6.560;2022-12-16T06:50:54;99464.00;;;-2.10
20092;BMP180;10205;49.678;6.560;2022-12-16T06:53:38;99489.00;;;-2.00
20092;BMP180;10205;49.678;6.560;2022-12-16T06:56:23;99482.00;;;-2.00
20092;BMP180;10205;49.678;6.560;2022-12-16T06:59:07;99476.00;;;-2.00
20092;BMP180;10205;49.678;6.560;2022-12-16T07:01:52;99494.00;;;-2.00
20092;BMP180;10205;49.678;6.560;2022-12-16T07:04:37;99490.00;;;-2.00
20092;BMP180;10205;49.678;6.560;2022-12-16T07:07:22;99495.00;;;-1.90
20092;BMP180;10205;49.678;6.560;2022-12-16T07:10:08;99503.00;;;-2.00
20092;BMP180;10205;49.678;6.560;2022-12-16T07:12:56;99504.00;;;-2.00
20092;BMP180;10205;49.678;6.560;2022-12-16T07:15:41;99502.00;;;-2.10
20092;BMP180;10205;49.678;6.560;2022-12-16T07:18:25;99513.00;;;-2.10
20092;BMP180;10205;49.678;6.560;2022-12-16T07:21:10;99519.00;;;-2.20
20092;BMP180;10205;49.678;6.560;2022-12-16T07:23:56;99518.00;;;-2.20
20092;BMP180;10205;49.678;6.560;2022-12-16T07:26:41;99530.00;;;-2.10
20092;BMP180;10205;49.678;6.560;2022-12-16T07:29:25;99532.00;;;-2.10
20092;BMP180;10205;49.678;6.560;2022-12-16T07:32:10;99533.00;;;-2.10
20092;BMP180;10205;49.678;6.560;2022-12-16T07:34:55;99535.00;;;-2.10
20092;BMP180;10205;49.678;6.560;2022-12-16T07:37:39;99544.00;;;-2.10
20092;BMP180;10205;49.678;6.560;2022-12-16T07:40:26;99543.00;;;-2.10
20092;BMP180;10205;49.678;6.560;2022-12-16T07:43:10;99553.00;;;-2.10
20092;BMP180;10205;49.678;6.560;2022-12-16T07:45:54;99569.00;;;-2.00
20092;BMP180;10205;49.678;6.560;2022-12-16T07:48:41;99568.00;;;-2.00
20092;BMP180;10205;49.678;6.560;2022-12-16T07:51:26;99573.00;;;-2.10
20092;BMP180;10205;49.678;6.560;2022-12-16T07:54:11;99581.00;;;-2.00
20092;BMP180;10205;49.678;6.560;2022-12-16T07:56:57;99568.00;;;-2.10
20092;BMP180;10205;49.678;6.560;2022-12-16T07:59:41;99581.00;;;-2.10
20092;BMP180;10205;49.678;6.560;2022-12-16T08:02:26;99583.00;;;-2.10
20092;BMP180;10205;49.678;6.560;2022-12-16T08:05:11;99592.00;;;-2.10
20092;BMP180;10205;49.678;6.560;2022-12-16T08:07:55;99590.00;;;-2.10
20092;BMP180;10205;49.678;6.560;2022-12-16T08:10:40;99599.00;;;-2.10
20092;BMP180;10205;49.678;6.560;2022-12-16T08:13:26;99596.00;;;-2.10
20092;BMP180;10205;49.678;6.560;2022-12-16T08:16:10;99605.00;;;-2.10
20092;BMP180;10205;49.678;6.560;2022-12-16T08:18:55;99625.00;;;-2.10
20092;BMP180;10205;49.678;6.560;2022-12-16T08:21:39;99610.00;;;-2.10
20092;BMP180;10205;49.678;6.560;2022-12-16T08:24:24;99614.00;;;-2.10
20092;BMP180;10205;49.678;6.560;2022-12-16T08:27:11;99619.00;;;-2.00
20092;BMP180;10205;49.678;6.560;2022-12-16T08:29:57;99629.00;;;-2.00
20092;BMP180;10205;49.678;6.560;2022-12-16T08:32:42;99622.00;;;-2.00
20092;BMP180;10205;49.678;6.560;2022-12-16T08:35:27;99615.00;;;-2.00
20092;BMP180;10205;49.678;6.560;2022-12-16T08:38:11;99626.00;;;-2.00
20092;BMP180;10205;49.678;6.560;2022-12-16T08:40:56;99637.00;;;-2.00
20092;BMP180;10205;49.678;6.560;2022-12-16T08:43:40;99629.00;;;-2.00
20092;BMP180;10205;49.678;6.560;2022-12-16T08:46:26;99637.00;;;-2.00
20092;BMP180;10205;49.678;6.560;2022-12-16T08:49:11;99625.00;;;-2.00
20092;BMP180;10205;49.678;6.560;2022-12-16T08:51:56;99634.00;;;-2.00
20092;BMP180;10205;49.678;6.560;2022-12-16T08:54:40;99628.00;;;-2.00
20092;BMP180;10205;49.678;6.560;2022-12-16T08:57:25;99638.00;;;-2.00
20092;BMP180;10205;49.678;6.560;2022-12-16T09:00:11;99642.00;;;-1.90
20092;BMP180;10205;49.678;6.560;2022-12-16T09:02:58;99638.00;;;-1.90
20092;BMP180;10205;49.678;6.560;2022-12-16T09:05:43;99643.00;;;-2.00
20092;BMP180;10205;49.678;6.560;2022-12-16T09:08:31;99645.00;;;-2.00
20092;BMP180;10205;49.678;6.560;2022-12-16T09:11:16;99658.00;;;-2.00
20092;BMP180;10205;49.678;6.560;2022-12-16T09:14:01;99651.00;;;-2.00
20092;BMP180;10205;49.678;6.560;2022-12-16T09:16:54;99654.00;;;-2.00
20092;BMP180;10205;49.678;6.560;2022-12-16T09:19:40;99647.00;;;-2.00
20092;BMP180;10205;49.678;6.560;2022-12-16T09:22:24;99648.00;;;-2.00
20092;BMP180;10205;49.678;6.560;2022-12-16T09:25:09;99672.00;;;-2.00
20092;BMP180;10205;49.678;6.560;2022-12-16T09:27:53;99665.00;;;-2.00
20092;BMP180;10205;49.678;6.560;2022-12-16T09:30:38;99665.00;;;-2.00
20092;BMP180;10205;49.678;6.560;2022-12-16T09:33:22;99663.00;;;-1.90
20092;BMP180;10205;49.678;6.560;2022-12-16T09:36:09;99662.00;;;-1.90
20092;BMP180;10205;49.678;6.560;2022-12-16T09:38:54;99660.00;;;-1.90
20092;BMP180;10205;49.678;6.560;2022-12-16T09:41:42;99664.00;;;-1.80
20092;BMP180;10205;49.678;6.560;2022-12-16T09:44:48;99665.00;;;-1.70
20092;BMP180;10205;49.678;6.560;2022-12-16T09:47:46;99668.00;;;-1.70
20092;BMP180;10205;49.678;6.560;2022-12-16T09:50:33;99673.00;;;-1.70
20092;BMP180;10205;49.678;6.560;2022-12-16T09:53:21;99674.00;;;-1.70
20092;BMP180;10205;49.678;6.560;2022-12-16T09:56:15;99669.00;;;-1.70
20092;BMP180;10205;49.678;6.560;2022-12-16T09:59:04;99668.00;;;-1.80
20092;BMP180;10205;49.678;6.560;2022-12-16T10:01:50;99681.00;;;-1.80
20092;BMP180;10205;49.678;6.560;2022-12-16T10:04:35;99669.00;;;-1.80
20092;BMP180;10205;49.678;6.560;2022-12-16T10:07:20;99691.00;;;-1.70
20092;BMP180;10205;49.678;6.560;2022-12-16T10:10:19;99681.00;;;-1.80
20092;BMP180;10205;49.678;6.560;2022-12-16T10:13:13;99687.00;;;-1.70
20092;BMP180;10205;49.678;6.560;2022-12-16T10:16:15;99678.00;;;-1.70
20092;BMP180;10205;49.678;6.560;2022-12-16T10:19:16;99685.00;;;-1.70
20092;BMP180;10205;49.678;6.560;2022-12-16T10:22:14;99681.00;;;-1.70
20092;BMP180;10205;49.678;6.560;2022-12-16T10:25:14;99688.00;;;-1.70
20092;BMP180;10205;49.678;6.560;2022-12-16T10:28:15;99681.00;;;-1.60
20092;BMP180;10205;49.678;6.560;2022-12-16T10:31:01;99681.00;;;-1.60
20092;BMP180;10205;49.678;6.560;2022-12-16T10:33:49;99687.00;;;-1.50
20092;BMP180;10205;49.678;6.560;2022-12-16T10:36:36;99686.00;;;-1.50
20092;BMP180;10205;49.678;6.560;2022-12-16T10:39:28;99685.00;;;-1.40
20092;BMP180;10205;49.678;6.560;2022-12-16T10:42:22;99690.00;;;-1.40
20092;BMP180;10205;49.678;6.560;2022-12-16T10:45:18;99691.00;;;-1.40
20092;BMP180;10205;49.678;6.560;2022-12-16T10:48:22;99685.00;;;-1.30
20092;BMP180;10205;49.678;6.560;2022-12-16T10:51:13;99682.00;;;-1.30
20092;BMP180;10205;49.678;6.560;2022-12-16T10:54:24;99681.00;;;-1.20
20092;BMP180;10205;49.678;6.560;2022-12-16T10:57:27;99682.00;;;-1.20
20092;BMP180;10205;49.678;6.560;2022-12-16T11:00:20;99690.00;;;-1.20
20092;BMP180;10205;49.678;6.560;2022-12-16T11:03:20;99680.00;;;-1.10
20092;BMP180;10205;49.678;6.560;2022-12-16T11:06:06;99677.00;;;-1.00
20092;BMP180;10205;49.678;6.560;2022-12-16T11:08:51;99678.00;;;-1.00
20092;BMP180;10205;49.678;6.560;2022-12-16T11:11:47;99677.00;;;-0.90
20092;BMP180;10205;49.678;6.560;2022-12-16T11:14:33;99676.00;;;-0.90
20092;BMP180;10205;49.678;6.560;2022-12-16T11:17:20;99677.00;;;-0.90
20092;BMP180;10205;49.678;6.560;2022-12-16T11:20:12;99684.00;;;-0.90
20092;BMP180;10205;49.678;6.560;2022-12-16T11:23:17;99687.00;;;-0.80
20092;BMP180;10205;49.678;6.560;2022-12-16T11:26:12;99685.00;;;-0.70
20092;BMP180;10205;49.678;6.560;2022-12-16T11:29:11;99694.00;;;-0.70
20092;BMP180;10205;49.678;6.560;2022-12-16T11:32:02;99705.00;;;-0.60
20092;BMP180;10205;49.678;6.560;2022-12-16T11:34:55;99680.00;;;-0.60
20092;BMP180;10205;49.678;6.560;2022-12-16T11:37:43;99679.00;;;-0.50
20092;BMP180;10205;49.678;6.560;2022-12-16T11:40:30;99697.00;;;-0.50
20092;BMP180;10205;49.678;6.560;2022-12-16T11:43:17;99677.00;;;-0.40
20092;BMP180;10205;49.678;6.560;2022-12-16T11:46:09;99687.00;;;-0.40
20092;BMP180;10205;49.678;6.560;2022-12-16T11:48:58;99681.00;;;-0.40
20092;BMP180;10205;49.678;6.560;2022-12-16T11:51:53;99690.00;;;-0.30
20092;BMP180;10205;49.678;6.560;2022-12-16T11:54:51;99690.00;;;-0.20
20092;BMP180;10205;49.678;6.560;2022-12-16T11:58:01;99689.00;;;-0.20
20092;BMP180;10205;49.678;6.560;2022-12-16T12:00:57;99680.00;;;-0.10
20092;BMP180;10205;49.678;6.560;2022-12-16T12:03:45;99687.00;;;-0.10
20092;BMP180;10205;49.678;6.560;2022-12-16T12:06:50;99691.00;;;0.00
20092;BMP180;10205;49.678;6.560;2022-12-16T12:09:45;99693.00;;;0.00
20092;BMP180;10205;49.678;6.560;2022-12-16T12:12:42;99685.00;;;0.10
20092;BMP180;10205;49.678;6.560;2022-12-16T12:15:37;99693.00;;;0.10
20092;BMP180;10205;49.678;6.560;2022-12-16T12:18:45;99691.00;;;0.20
20092;BMP180;10205;49.678;6.560;2022-12-16T12:21:59;99676.00;;;0.20
20092;BMP180;10205;49.678;6.560;2022-12-16T12:25:03;99688.00;;;0.20
20092;BMP180;10205;49.678;6.560;2022-12-16T12:28:13;99693.00;;;0.30
20092;BMP180;10205;49.678;6.560;2022-12-16T12:31:11;99686.00;;;0.30
20092;BMP180;10205;49.678;6.560;2022-12-16T12:34:18;99695.00;;;0.30
20092;BMP180;10205;49.678;6.560;2022-12-16T12:37:16;99687.00;;;0.40
20092;BMP180;10205;49.678;6.560;2022-12-16T12:40:29;99680.00;;;0.50
20092;BMP180;10205;49.678;6.560;2022-12-16T12:43:28;99691.00;;;0.50
20092;BMP180;10205;49.678;6.560;2022-12-16T12:46:22;99701.00;;;0.60
20092;BMP180;10205;49.678;6.560;2022-12-16T12:49:18;99703.00;;;0.60
20092;BMP180;10205;49.678;6.560;2022-12-16T12:52:21;99700.00;;;0.70
20092;BMP180;10205;49.678;6.560;2022-12-16T12:55:16;99700.00;;;0.70
20092;BMP180;10205;49.678;6.560;2022-12-16T12:58:07;99697.00;;;0.80
20092;BMP180;10205;49.678;6.560;2022-12-16T13:01:03;99692.00;;;0.80
20092;BMP180;10205;49.678;6.560;2022-12-16T13:03:49;99699.00;;;0.90
20092;BMP180;10205;49.678;6.560;2022-12-16T13:06:37;99706.00;;;0.90
20092;BMP180;10205;49.678;6.560;2022-12-16T13:09:28;99699.00;;;1.00
20092;BMP180;10205;49.678;6.560;2022-12-16T13:12:29;99703.00;;;1.00
20092;BMP180;10205;49.678;6.560;2022-12-16T13:15:34;99706.00;;;1.00
20092;BMP180;10205;49.678;6.560;2022-12-16T13:18:28;99702.00;;;1.10
20092;BMP180;10205;49.678;6.560;2022-12-16T13:21:43;99708.00;;;1.10
20092;BMP180;10205;49.678;6.560;2022-12-16T13:24:39;99709.00;;;1.10
20092;BMP180;10205;49.678;6.560;2022-12-16T13:27:27;99713.00;;;1.20
20092;BMP180;10205;49.678;6.560;2022-12-16T13:30:23;99713.00;;;1.20
20092;BMP180;10205;49.678;6.560;2022-12-16T13:33:24;99712.00;;;1.20
20092;BMP180;10205;49.678;6.560;2022-12-16T13:36:11;99730.00;;;1.30
20092;BMP180;10205;49.678;6.560;2022-12-16T13:39:06;99722.00;;;1.30
20092;BMP180;10205;49.678;6.560;2022-12-16T13:42:02;99728.00;;;1.30
20092;BMP180;10205;49.678;6.560;2022-12-16T13:44:58;99722.00;;;1.30
20092;BMP180;10205;49.678;6.560;2022-12-16T13:48:02;99727.00;;;1.40
20092;BMP180;10205;49.678;6.560;2022-12-16T13:50:49;99733.00;;;1.40
20092;BMP180;10205;49.678;6.560;2022-12-16T13:53:41;99735.00;;;1.40
20092;BMP180;10205;49.678;6.560;2022-12-16T13:56:34;99739.00;;;1.40
20092;BMP180;10205;49.678;6.560;2022-12-16T13:59:27;99735.00;;;1.50
20092;BMP180;10205;49.678;6.560;2022-12-16T14:02:26;99740.00;;;1.50
20092;BMP180;10205;49.678;6.560;2022-12-16T14:05:18;99748.00;;;1.50
20092;BMP180;10205;49.678;6.560;2022-12-16T14:08:05;99760.00;;;1.50
20092;BMP180;10205;49.678;6.560;2022-12-16T14:11:00;99763.00;;;1.60
20092;BMP180;10205;49.678;6.560;2022-12-16T14:13:53;99760.00;;;1.60
20092;BMP180;10205;49.678;6.560;2022-12-16T14:16:50;99766.00;;;1.60
20092;BMP180;10205;49.678;6.560;2022-12-16T14:19:50;99749.00;;;1.60
20092;BMP180;10205;49.678;6.560;2022-12-16T14:22:51;99761.00;;;1.70
20092;BMP180;10205;49.678;6.560;2022-12-16T14:25:41;99765.00;;;1.70
20092;BMP180;10205;49.678;6.560;2022-12-16T14:28:30;99772.00;;;1.70
20092;BMP180;10205;49.678;6.560;2022-12-16T14:31:20;99775.00;;;1.70
20092;BMP180;10205;49.678;6.560;2022-12-16T14:34:15;99783.00;;;1.70
20092;BMP180;10205;49.678;6.560;2022-12-16T14:36:59;99777.00;;;1.70
20092;BMP180;10205;49.678;6.560;2022-12-16T14:39:48;99787.00;;;1.70
20092;BMP180;10205;49.678;6.560;2022-12-16T14:42:33;99785.00;;;1.70
20092;BMP180;10205;49.678;6.560;2022-12-16T14:45:27;99794.00;;;1.80
20092;BMP180;10205;49.678;6.560;2022-12-16T14:48:24;99805.00;;;1.70
20092;BMP180;10205;49.678;6.560;2022-12-16T14:51:27;99817.00;;;1.70
20092;BMP180;10205;49.678;6.560;2022-12-16T14:54:25;99811.00;;;1.80
20092;BMP180;10205;49.678;6.560;2022-12-16T14:57:13;99810.00;;;1.70
20092;BMP180;10205;49.678;6.560;2022-12-16T15:00:12;99811.00;;;1.70
20092;BMP180;10205;49.678;6.560;2022-12-16T15:03:07;99806.00;;;1.70
20092;BMP180;10205;49.678;6.560;2022-12-16T15:05:55;99811.00;;;1.70
20092;BMP180;10205;49.678;6.560;2022-12-16T15:08:50;99811.00;;;1.70
20092;BMP180;10205;49.678;6.560;2022-12-16T15:11:36;99819.00;;;1.70
20092;BMP180;10205;49.678;6.560;2022-12-16T15:14:27;99812.00;;;1.70
20092;BMP180;10205;49.678;6.560;2022-12-16T15:17:20;99829.00;;;1.70
20092;BMP180;10205;49.678;6.560;2022-12-16T15:20:15;99835.00;;;1.70
20092;BMP180;10205;49.678;6.560;2022-12-16T15:23:00;99843.00;;;1.70
20092;BMP180;10205;49.678;6.560;2022-12-16T15:25:54;99836.00;;;1.70
20092;BMP180;10205;49.678;6.560;2022-12-16T15:28:42;99847.00;;;1.70
20092;BMP180;10205;49.678;6.560;2022-12-16T15:31:32;99875.00;;;1.70
20092;BMP180;10205;49.678;6.560;2022-12-16T15:34:30;99856.00;;;1.70
20092;BMP180;10205;49.678;6.560;2022-12-16T15:37:21;99855.00;;;1.70
20092;BMP180;10205;49.678;6.560;2022-12-16T15:40:26;99857.00;;;1.60
20092;BMP180;10205;49.678;6.560;2022-12-16T15:43:27;99869.00;;;1.60
20092;BMP180;10205;49.678;6.560;2022-12-16T15:46:21;99881.00;;;1.60
20092;BMP180;10205;49.678;6.560;2022-12-16T15:49:17;99880.00;;;1.60
20092;BMP180;10205;49.678;6.560;2022-12-16T15:52:21;99891.00;;;1.60
20092;BMP180;10205;49.678;6.560;2022-12-16T15:55:23;99893.00;;;1.60
20092;BMP180;10205;49.678;6.560;2022-12-16T15:58:18;99901.00;;;1.50
20092;BMP180;10205;49.678;6.560;2022-12-16T16:01:06;99909.00;;;1.50